createdAt,value
2018-07-10T00:01:01.222Z,1007.0
2018-07-10T00:02:02.616Z,1007.0
2018-07-10T00:03:04.012Z,1007.0
2018-07-10T00:04:05.402Z,1007.0
2018-07-10T00:05:06.795Z,1007.0
2018-07-10T00:06:08.191Z,1007.0
2018-07-10T00:07:09.578Z,1007.0
2018-07-10T00:08:11.125Z,1007.0
2018-07-10T00:09:12.370Z,1006.9
2018-07-10T00:10:13.765Z,1006.9
2018-07-10T00:11:15.157Z,1006.9
2018-07-10T00:12:16.601Z,1006.9
2018-07-10T00:13:17.943Z,1006.9
2018-07-10T00:14:19.336Z,1006.9
2018-07-10T00:15:20.729Z,1006.9
2018-07-10T00:16:22.124Z,1006.9
2018-07-10T00:17:23.518Z,1006.9
2018-07-10T00:18:24.933Z,1006.9
2018-07-10T00:19:26.329Z,1006.9
2018-07-10T00:20:27.727Z,1007.0
2018-07-10T00:21:29.124Z,1006.9
2018-07-10T00:22:30.520Z,1006.9
2018-07-10T00:23:31.912Z,1006.9
2018-07-10T00:24:33.306Z,1007.0
2018-07-10T00:25:34.698Z,1006.9
2018-07-10T00:26:36.090Z,1007.0
2018-07-10T00:27:37.486Z,1007.0
2018-07-10T00:28:38.876Z,1007.0
2018-07-10T00:29:40.283Z,1007.0
2018-07-10T00:30:41.679Z,1007.1
2018-07-10T00:31:43.072Z,1007.0
2018-07-10T00:32:44.465Z,1007.0
2018-07-10T00:33:45.855Z,1007.0
2018-07-10T00:34:47.248Z,1007.0
2018-07-10T00:35:48.644Z,1007.0
2018-07-10T00:36:50.037Z,1007.0
2018-07-10T00:37:51.459Z,1007.0
2018-07-10T00:38:52.849Z,1007.0
2018-07-10T00:39:54.241Z,1006.9
2018-07-10T00:40:55.642Z,1007.0
2018-07-10T00:41:57.029Z,1007.0
2018-07-10T00:42:58.430Z,1007.0
2018-07-10T00:43:59.826Z,1006.9
2018-07-10T00:45:01.217Z,1007.0
2018-07-10T00:46:02.614Z,1007.0
2018-07-10T00:47:04.003Z,1007.0
2018-07-10T00:48:05.402Z,1007.0
2018-07-10T00:49:06.791Z,1007.0
2018-07-10T00:50:08.191Z,1007.0
2018-07-10T00:51:09.583Z,1007.0
2018-07-10T00:52:10.971Z,1007.1
2018-07-10T00:53:12.363Z,1007.1
2018-07-10T00:54:13.754Z,1007.0
2018-07-10T00:55:15.144Z,1007.1
2018-07-10T00:56:16.541Z,1007.1
2018-07-10T00:57:17.934Z,1007.0
2018-07-10T00:58:19.327Z,1007.1
2018-07-10T00:59:20.721Z,1007.0
2018-07-10T01:00:22.115Z,1007.0
2018-07-10T01:01:23.510Z,1007.0
2018-07-10T01:02:24.904Z,1007.0
2018-07-10T01:03:26.294Z,1007.0
2018-07-10T01:04:27.689Z,1007.0
2018-07-10T01:05:29.082Z,1007.0
2018-07-10T01:06:30.473Z,1007.0
2018-07-10T01:07:31.863Z,1007.0
2018-07-10T01:08:33.258Z,1007.0
2018-07-10T01:09:34.654Z,1007.0
2018-07-10T01:10:36.051Z,1006.9
2018-07-10T01:11:37.444Z,1006.9
2018-07-10T01:12:38.843Z,1006.9
2018-07-10T01:13:40.235Z,1006.9
2018-07-10T01:14:41.629Z,1006.9
2018-07-10T01:15:43.027Z,1006.8
2018-07-10T01:16:44.421Z,1006.9
2018-07-10T01:17:45.813Z,1006.8
2018-07-10T01:18:47.221Z,1006.9
2018-07-10T01:19:48.604Z,1006.9
2018-07-10T01:20:49.999Z,1006.9
2018-07-10T01:21:51.404Z,1006.9
2018-07-10T01:22:52.802Z,1006.8
2018-07-10T01:23:54.194Z,1006.8
2018-07-10T01:24:55.584Z,1006.9
2018-07-10T01:25:56.979Z,1006.8
2018-07-10T01:26:58.372Z,1006.8
2018-07-10T01:27:59.758Z,1006.8
2018-07-10T01:29:01.150Z,1006.8
2018-07-10T01:30:02.545Z,1006.8
2018-07-10T01:31:03.936Z,1006.8
2018-07-10T01:32:05.328Z,1006.8
2018-07-10T01:33:06.723Z,1006.8
2018-07-10T01:34:08.134Z,1006.9
2018-07-10T01:35:09.521Z,1006.8
2018-07-10T01:36:10.911Z,1006.9
2018-07-10T01:37:12.303Z,1006.9
2018-07-10T01:38:13.694Z,1006.9
2018-07-10T01:39:15.106Z,1006.9
2018-07-10T01:40:16.502Z,1006.8
2018-07-10T01:41:17.895Z,1006.9
2018-07-10T01:42:19.283Z,1006.9
2018-07-10T01:43:20.678Z,1006.8
2018-07-10T01:44:22.085Z,1006.8
2018-07-10T01:45:23.480Z,1006.8
2018-07-10T01:46:24.873Z,1006.8
2018-07-10T01:47:26.270Z,1006.9
2018-07-10T01:48:27.664Z,1006.8
2018-07-10T01:49:29.693Z,1006.8
2018-07-10T01:50:31.081Z,1006.8
2018-07-10T01:51:32.473Z,1006.9
2018-07-10T01:52:33.865Z,1006.9
2018-07-10T01:53:35.257Z,1006.9
2018-07-10T01:54:36.648Z,1006.9
2018-07-10T01:55:38.039Z,1006.8
2018-07-10T01:56:39.569Z,1006.8
2018-07-10T01:57:40.833Z,1006.8
2018-07-10T01:58:42.226Z,1006.8
2018-07-10T01:59:43.623Z,1006.8
2018-07-10T02:00:45.040Z,1006.8
2018-07-10T02:01:46.412Z,1006.7
2018-07-10T02:02:47.807Z,1006.8
2018-07-10T02:03:49.229Z,1006.8
2018-07-10T02:04:50.621Z,1006.8
2018-07-10T02:05:52.010Z,1006.8
2018-07-10T02:06:53.404Z,1006.7
2018-07-10T02:07:54.797Z,1006.8
2018-07-10T02:08:56.189Z,1006.8
2018-07-10T02:09:57.587Z,1006.8
2018-07-10T02:10:58.974Z,1006.7
2018-07-10T02:12:00.367Z,1006.8
2018-07-10T02:13:01.757Z,1006.7
2018-07-10T02:14:03.216Z,1006.7
2018-07-10T02:15:04.544Z,1006.7
2018-07-10T02:16:05.933Z,1006.7
2018-07-10T02:17:07.334Z,1006.7
2018-07-10T02:18:08.721Z,1006.7
2018-07-10T02:19:10.139Z,1006.7
2018-07-10T02:20:11.529Z,1006.7
2018-07-10T02:21:12.924Z,1006.6
2018-07-10T02:22:14.316Z,1006.6
2018-07-10T02:23:15.709Z,1006.7
2018-07-10T02:24:17.106Z,1006.7
2018-07-10T02:25:18.492Z,1006.7
2018-07-10T02:26:19.881Z,1006.6
2018-07-10T02:27:21.276Z,1006.6
2018-07-10T02:28:22.670Z,1006.6
2018-07-10T02:29:24.058Z,1006.6
2018-07-10T02:30:25.451Z,1006.6
2018-07-10T02:31:26.851Z,1006.5
2018-07-10T02:32:28.236Z,1006.6
2018-07-10T02:33:29.632Z,1006.6
2018-07-10T02:34:31.023Z,1006.6
2018-07-10T02:35:32.416Z,1006.6
2018-07-10T02:36:33.811Z,1006.6
2018-07-10T02:37:35.200Z,1006.5
2018-07-10T02:38:36.597Z,1006.6
2018-07-10T02:39:37.993Z,1006.6
2018-07-10T02:40:39.378Z,1006.6
2018-07-10T02:41:40.771Z,1006.6
2018-07-10T02:42:42.168Z,1006.6
2018-07-10T02:43:43.556Z,1006.6
2018-07-10T02:44:44.951Z,1006.6
2018-07-10T02:45:46.341Z,1006.5
2018-07-10T02:46:47.756Z,1006.5
2018-07-10T02:47:49.131Z,1006.6
2018-07-10T02:48:50.527Z,1006.6
2018-07-10T02:49:51.917Z,1006.6
2018-07-10T02:50:53.318Z,1006.6
2018-07-10T02:51:54.707Z,1006.6
2018-07-10T02:52:56.099Z,1006.6
2018-07-10T02:53:57.498Z,1006.6
2018-07-10T02:54:58.888Z,1006.6
2018-07-10T02:56:00.276Z,1006.6
2018-07-10T02:57:01.667Z,1006.6
2018-07-10T02:58:03.061Z,1006.6
2018-07-10T02:59:04.456Z,1006.6
2018-07-10T03:00:05.848Z,1006.6
2018-07-10T03:01:07.237Z,1006.6
2018-07-10T03:02:08.629Z,1006.6
2018-07-10T03:03:10.019Z,1006.6
2018-07-10T03:04:11.415Z,1006.6
2018-07-10T03:05:12.805Z,1006.6
2018-07-10T03:06:14.199Z,1006.6
2018-07-10T03:07:15.590Z,1006.6
2018-07-10T03:08:16.979Z,1006.6
2018-07-10T03:09:18.368Z,1006.6
2018-07-10T03:10:19.760Z,1006.6
2018-07-10T03:11:21.161Z,1006.6
2018-07-10T03:12:22.553Z,1006.6
2018-07-10T03:13:23.945Z,1006.6
2018-07-10T03:14:25.344Z,1006.6
2018-07-10T03:15:26.730Z,1006.6
2018-07-10T03:16:28.125Z,1006.6
2018-07-10T03:17:30.080Z,1006.7
2018-07-10T03:18:31.475Z,1006.6
2018-07-10T03:19:32.869Z,1006.6
2018-07-10T03:20:34.259Z,1006.6
2018-07-10T03:21:35.654Z,1006.6
2018-07-10T03:22:37.070Z,1006.6
2018-07-10T03:23:38.464Z,1006.6
2018-07-10T03:24:39.823Z,1006.6
2018-07-10T03:25:41.217Z,1006.6
2018-07-10T03:26:42.615Z,1006.6
2018-07-10T03:27:44.005Z,1006.6
2018-07-10T03:28:45.400Z,1006.6
2018-07-10T03:29:46.792Z,1006.6
2018-07-10T03:30:48.211Z,1006.6
2018-07-10T03:31:49.624Z,1006.6
2018-07-10T03:32:51.014Z,1006.6
2018-07-10T03:33:52.408Z,1006.6
2018-07-10T03:34:53.800Z,1006.6
2018-07-10T03:35:55.197Z,1006.6
2018-07-10T03:36:56.588Z,1006.6
2018-07-10T03:37:57.975Z,1006.6
2018-07-10T03:38:59.368Z,1006.6
2018-07-10T03:40:00.760Z,1006.6
2018-07-10T03:41:02.155Z,1006.6
2018-07-10T03:42:03.549Z,1006.6
2018-07-10T03:43:04.941Z,1006.6
2018-07-10T03:44:06.328Z,1006.6
2018-07-10T03:45:07.725Z,1006.6
2018-07-10T03:46:09.121Z,1006.6
2018-07-10T03:47:10.516Z,1006.6
2018-07-10T03:48:11.911Z,1006.6
2018-07-10T03:49:13.306Z,1006.7
2018-07-10T03:50:14.700Z,1006.6
2018-07-10T03:51:16.093Z,1006.6
2018-07-10T03:52:17.491Z,1006.6
2018-07-10T03:53:18.879Z,1006.6
2018-07-10T03:54:20.288Z,1006.7
2018-07-10T03:55:21.689Z,1006.6
2018-07-10T03:56:23.082Z,1006.7
2018-07-10T03:57:24.482Z,1006.7
2018-07-10T03:58:25.875Z,1006.6
2018-07-10T03:59:27.273Z,1006.6
2018-07-10T04:00:28.665Z,1006.7
2018-07-10T04:01:30.114Z,1006.6
2018-07-10T04:02:31.461Z,1006.6
2018-07-10T04:03:32.861Z,1006.7
2018-07-10T04:04:34.251Z,1006.6
2018-07-10T04:05:35.645Z,1006.6
2018-07-10T04:06:37.039Z,1006.7
2018-07-10T04:07:38.432Z,1006.7
2018-07-10T04:08:39.827Z,1006.7
2018-07-10T04:09:41.226Z,1006.7
2018-07-10T04:10:42.616Z,1006.7
2018-07-10T04:11:44.054Z,1006.8
2018-07-10T04:12:45.414Z,1006.8
2018-07-10T04:13:46.810Z,1006.7
2018-07-10T04:14:48.206Z,1006.7
2018-07-10T04:15:49.601Z,1006.7
2018-07-10T04:16:51.006Z,1006.7
2018-07-10T04:17:52.431Z,1006.6
2018-07-10T04:18:53.799Z,1006.7
2018-07-10T04:19:55.187Z,1006.6
2018-07-10T04:20:56.580Z,1006.6
2018-07-10T04:21:57.977Z,1006.6
2018-07-10T04:22:59.368Z,1006.6
2018-07-10T04:24:00.761Z,1006.6
2018-07-10T04:25:02.157Z,1006.7
2018-07-10T04:26:03.551Z,1006.7
2018-07-10T04:27:04.946Z,1006.6
2018-07-10T04:28:06.343Z,1006.6
2018-07-10T04:29:07.734Z,1006.6
2018-07-10T04:30:09.127Z,1006.6
2018-07-10T04:31:10.523Z,1006.6
2018-07-10T04:32:11.920Z,1006.6
2018-07-10T04:33:13.321Z,1006.6
2018-07-10T04:34:14.715Z,1006.6
2018-07-10T04:35:16.107Z,1006.5
2018-07-10T04:36:17.503Z,1006.6
2018-07-10T04:37:18.896Z,1006.5
2018-07-10T04:38:20.295Z,1006.6
2018-07-10T04:39:21.689Z,1006.6
2018-07-10T04:40:23.085Z,1006.6
2018-07-10T04:41:24.487Z,1006.6
2018-07-10T04:42:25.995Z,1006.6
2018-07-10T04:43:27.331Z,1006.6
2018-07-10T04:44:28.724Z,1006.6
2018-07-10T04:45:30.121Z,1006.6
2018-07-10T04:46:31.522Z,1006.6
2018-07-10T04:47:32.916Z,1006.6
2018-07-10T04:48:34.310Z,1006.6
2018-07-10T04:49:35.702Z,1006.6
2018-07-10T04:50:37.098Z,1006.6
2018-07-10T04:51:38.494Z,1006.6
2018-07-10T04:52:39.894Z,1006.5
2018-07-10T04:53:41.288Z,1006.6
2018-07-10T04:54:42.689Z,1006.6
2018-07-10T04:55:44.150Z,1006.5
2018-07-10T04:56:45.569Z,1006.5
2018-07-10T04:57:46.962Z,1006.5
2018-07-10T04:58:48.355Z,1006.5
2018-07-10T04:59:49.749Z,1006.5
2018-07-10T05:00:51.151Z,1006.5
2018-07-10T05:01:52.549Z,1006.5
2018-07-10T05:02:53.941Z,1006.5
2018-07-10T05:03:55.332Z,1006.5
2018-07-10T05:04:56.729Z,1006.5
2018-07-10T05:05:58.140Z,1006.5
2018-07-10T05:06:59.516Z,1006.5
2018-07-10T05:08:00.911Z,1006.5
2018-07-10T05:09:02.309Z,1006.5
2018-07-10T05:10:03.717Z,1006.5
2018-07-10T05:11:05.374Z,1006.5
2018-07-10T05:12:06.861Z,1006.5
2018-07-10T05:13:08.284Z,1006.4
2018-07-10T05:14:09.902Z,1006.4
2018-07-10T05:15:11.298Z,1006.4
2018-07-10T05:16:12.695Z,1006.5
2018-07-10T05:17:14.086Z,1006.5
2018-07-10T05:18:15.481Z,1006.5
2018-07-10T05:19:16.877Z,1006.5
2018-07-10T05:20:18.275Z,1006.5
2018-07-10T05:21:19.664Z,1006.5
2018-07-10T05:22:21.065Z,1006.5
2018-07-10T05:23:22.464Z,1006.5
2018-07-10T05:24:23.854Z,1006.5
2018-07-10T05:25:25.251Z,1006.4
2018-07-10T05:26:26.685Z,1006.4
2018-07-10T05:27:28.078Z,1006.4
2018-07-10T05:28:29.474Z,1006.4
2018-07-10T05:29:30.864Z,1006.4
2018-07-10T05:30:32.264Z,1006.4
2018-07-10T05:31:33.670Z,1006.4
2018-07-10T05:32:35.061Z,1006.4
2018-07-10T05:33:36.456Z,1006.4
2018-07-10T05:34:37.854Z,1006.4
2018-07-10T05:35:39.276Z,1006.3
2018-07-10T05:36:40.672Z,1006.3
2018-07-10T05:37:42.085Z,1006.4
2018-07-10T05:38:43.511Z,1006.4
2018-07-10T05:39:44.912Z,1006.3
2018-07-10T05:40:46.597Z,1006.3
2018-07-10T05:41:48.008Z,1006.4
2018-07-10T05:42:49.419Z,1006.3
2018-07-10T05:43:50.850Z,1006.3
2018-07-10T05:44:52.251Z,1006.4
2018-07-10T05:45:53.641Z,1006.4
2018-07-10T05:46:55.041Z,1006.4
2018-07-10T05:47:56.450Z,1006.4
2018-07-10T05:48:57.847Z,1006.4
2018-07-10T05:49:59.245Z,1006.3
2018-07-10T05:51:00.640Z,1006.4
2018-07-10T05:52:02.045Z,1006.3
2018-07-10T05:53:03.436Z,1006.3
2018-07-10T05:54:04.833Z,1006.3
2018-07-10T05:55:06.232Z,1006.3
2018-07-10T05:56:07.623Z,1006.3
2018-07-10T05:57:09.023Z,1006.3
2018-07-10T05:58:10.421Z,1006.3
2018-07-10T05:59:11.819Z,1006.2
2018-07-10T06:00:13.210Z,1006.2
2018-07-10T06:01:14.603Z,1006.2
2018-07-10T06:02:16.000Z,1006.2
2018-07-10T06:03:17.402Z,1006.2
2018-07-10T06:04:18.797Z,1006.2
2018-07-10T06:05:20.194Z,1006.2
2018-07-10T06:06:21.594Z,1006.2
2018-07-10T06:07:22.990Z,1006.2
2018-07-10T06:08:24.388Z,1006.1
2018-07-10T06:09:25.786Z,1006.1
2018-07-10T06:10:27.239Z,1006.1
2018-07-10T06:11:28.580Z,1006.2
2018-07-10T06:12:29.977Z,1006.1
2018-07-10T06:13:31.374Z,1006.2
2018-07-10T06:14:32.775Z,1006.2
2018-07-10T06:15:34.163Z,1006.1
2018-07-10T06:16:35.560Z,1006.2
2018-07-10T06:17:36.962Z,1006.1
2018-07-10T06:18:38.365Z,1006.2
2018-07-10T06:19:39.771Z,1006.2
2018-07-10T06:20:41.241Z,1006.1
2018-07-10T06:21:42.667Z,1006.1
2018-07-10T06:22:44.064Z,1006.1
2018-07-10T06:23:45.458Z,1006.0
2018-07-10T06:24:46.850Z,1006.0
2018-07-10T06:25:48.248Z,1006.1
2018-07-10T06:26:49.644Z,1006.0
2018-07-10T06:27:51.045Z,1006.0
2018-07-10T06:28:52.444Z,1006.0
2018-07-10T06:29:53.843Z,1006.0
2018-07-10T06:30:55.245Z,1006.0
2018-07-10T06:31:56.654Z,1006.0
2018-07-10T06:32:58.049Z,1006.1
2018-07-10T06:33:59.448Z,1006.0
2018-07-10T06:35:00.845Z,1006.0
2018-07-10T06:36:02.240Z,1006.0
2018-07-10T06:37:03.635Z,1006.0
2018-07-10T06:38:05.035Z,1006.0
2018-07-10T06:39:06.433Z,1006.0
2018-07-10T06:40:07.825Z,1006.0
2018-07-10T06:41:09.222Z,1006.0
2018-07-10T06:42:10.618Z,1006.0
2018-07-10T06:43:12.009Z,1005.9
2018-07-10T06:44:13.405Z,1005.9
2018-07-10T06:45:14.797Z,1005.9
2018-07-10T06:46:16.192Z,1005.9
2018-07-10T06:47:17.589Z,1005.9
2018-07-10T06:48:18.985Z,1005.9
2018-07-10T06:49:20.384Z,1005.8
2018-07-10T06:50:21.788Z,1005.8
2018-07-10T06:51:23.183Z,1005.9
2018-07-10T06:52:24.714Z,1005.9
2018-07-10T06:53:26.374Z,1005.9
2018-07-10T06:54:27.402Z,1005.9
2018-07-10T06:55:28.798Z,1005.8
2018-07-10T06:56:30.198Z,1005.9
2018-07-10T06:57:31.599Z,1005.8
2018-07-10T06:58:32.993Z,1005.8
2018-07-10T06:59:34.387Z,1005.8
2018-07-10T07:00:35.827Z,1005.8
2018-07-10T07:01:37.189Z,1005.8
2018-07-10T07:02:38.589Z,1005.8
2018-07-10T07:03:39.985Z,1005.8
2018-07-10T07:04:41.389Z,1005.8
2018-07-10T07:05:42.787Z,1005.8
2018-07-10T07:06:44.188Z,1005.8
2018-07-10T07:07:45.623Z,1005.8
2018-07-10T07:08:46.977Z,1005.8
2018-07-10T07:09:48.378Z,1005.8
2018-07-10T07:10:49.774Z,1005.8
2018-07-10T07:11:51.173Z,1005.7
2018-07-10T07:12:52.568Z,1005.8
2018-07-10T07:13:53.968Z,1005.8
2018-07-10T07:14:55.368Z,1005.8
2018-07-10T07:15:56.826Z,1005.8
2018-07-10T07:16:58.157Z,1005.8
2018-07-10T07:17:59.553Z,1005.8
2018-07-10T07:19:00.948Z,1005.8
2018-07-10T07:20:02.342Z,1005.8
2018-07-10T07:21:03.742Z,1005.8
2018-07-10T07:22:05.143Z,1005.8
2018-07-10T07:23:06.539Z,1005.8
2018-07-10T07:24:07.981Z,1005.7
2018-07-10T07:25:09.381Z,1005.8
2018-07-10T07:26:10.782Z,1005.7
2018-07-10T07:27:12.171Z,1005.7
2018-07-10T07:28:13.569Z,1005.8
2018-07-10T07:29:14.965Z,1005.8
2018-07-10T07:30:16.372Z,1005.8
2018-07-10T07:31:17.770Z,1005.8
2018-07-10T07:32:19.165Z,1005.8
2018-07-10T07:33:20.561Z,1005.8
2018-07-10T07:34:21.963Z,1005.7
2018-07-10T07:35:23.353Z,1005.8
2018-07-10T07:36:24.750Z,1005.8
2018-07-10T07:37:26.146Z,1005.8
2018-07-10T07:38:27.542Z,1005.8
2018-07-10T07:39:28.942Z,1005.7
2018-07-10T07:40:30.337Z,1005.8
2018-07-10T07:41:31.730Z,1005.8
2018-07-10T07:42:33.135Z,1005.8
2018-07-10T07:43:34.552Z,1005.8
2018-07-10T07:44:35.925Z,1005.8
2018-07-10T07:45:37.321Z,1005.8
2018-07-10T07:46:38.768Z,1005.8
2018-07-10T07:47:40.219Z,1005.8
2018-07-10T07:48:41.620Z,1005.8
2018-07-10T07:49:43.014Z,1005.8
2018-07-10T07:50:44.413Z,1005.8
2018-07-10T07:51:45.808Z,1005.7
2018-07-10T07:52:47.205Z,1005.8
2018-07-10T07:53:48.605Z,1005.7
2018-07-10T07:54:50.000Z,1005.7
2018-07-10T07:55:51.401Z,1005.6
2018-07-10T07:56:52.796Z,1005.7
2018-07-10T07:57:54.193Z,1005.7
2018-07-10T07:58:55.594Z,1005.7
2018-07-10T07:59:56.993Z,1005.7
2018-07-10T08:00:58.393Z,1005.7
2018-07-10T08:01:59.792Z,1005.7
2018-07-10T08:03:01.188Z,1005.6
2018-07-10T08:04:02.586Z,1005.7
2018-07-10T08:05:03.982Z,1005.7
2018-07-10T08:06:05.383Z,1005.7
2018-07-10T08:07:06.783Z,1005.7
2018-07-10T08:08:08.199Z,1005.7
2018-07-10T08:09:09.596Z,1005.7
2018-07-10T08:10:10.992Z,1005.7
2018-07-10T08:11:12.395Z,1005.6
2018-07-10T08:12:13.791Z,1005.6
2018-07-10T08:13:15.189Z,1005.7
2018-07-10T08:14:16.597Z,1005.6
2018-07-10T08:15:17.991Z,1005.6
2018-07-10T08:16:19.387Z,1005.6
2018-07-10T08:17:20.783Z,1005.6
2018-07-10T08:18:22.179Z,1005.6
2018-07-10T08:19:23.576Z,1005.6
2018-07-10T08:20:24.978Z,1005.5
2018-07-10T08:21:26.377Z,1005.6
2018-07-10T08:22:27.777Z,1005.5
2018-07-10T08:23:29.174Z,1005.5
2018-07-10T08:24:30.617Z,1005.5
2018-07-10T08:25:31.981Z,1005.5
2018-07-10T08:26:33.377Z,1005.5
2018-07-10T08:27:34.775Z,1005.5
2018-07-10T08:28:36.176Z,1005.5
2018-07-10T08:29:37.601Z,1005.5
2018-07-10T08:30:39.010Z,1005.5
2018-07-10T08:31:40.405Z,1005.4
2018-07-10T08:32:41.802Z,1005.5
2018-07-10T08:33:43.254Z,1005.4
2018-07-10T08:34:44.591Z,1005.4
2018-07-10T08:35:45.990Z,1005.4
2018-07-10T08:36:47.399Z,1005.3
2018-07-10T08:37:48.795Z,1005.4
2018-07-10T08:38:50.191Z,1005.4
2018-07-10T08:39:51.587Z,1005.3
2018-07-10T08:40:52.986Z,1005.3
2018-07-10T08:41:54.386Z,1005.3
2018-07-10T08:42:55.785Z,1005.3
2018-07-10T08:43:57.183Z,1005.3
2018-07-10T08:44:58.580Z,1005.3
2018-07-10T08:45:59.979Z,1005.2
2018-07-10T08:47:01.377Z,1005.2
2018-07-10T08:48:02.790Z,1005.2
2018-07-10T08:49:04.194Z,1005.1
2018-07-10T08:50:05.593Z,1005.1
2018-07-10T08:51:06.996Z,1005.1
2018-07-10T08:52:08.386Z,1005.1
2018-07-10T08:53:09.791Z,1005.1
2018-07-10T08:54:11.189Z,1005.1
2018-07-10T08:55:12.596Z,1005.1
2018-07-10T08:56:13.998Z,1005.1
2018-07-10T08:57:15.401Z,1005.0
2018-07-10T08:58:16.803Z,1005.1
2018-07-10T08:59:18.198Z,1005.0
2018-07-10T09:00:19.596Z,1005.0
2018-07-10T09:01:20.997Z,1004.9
2018-07-10T09:02:22.396Z,1004.9
2018-07-10T09:03:23.794Z,1004.9
2018-07-10T09:04:25.196Z,1004.9
2018-07-10T09:05:26.596Z,1004.9
2018-07-10T09:06:27.993Z,1004.9
2018-07-10T09:07:29.394Z,1005.0
2018-07-10T09:08:30.794Z,1004.9
2018-07-10T09:09:32.194Z,1004.9
2018-07-10T09:10:33.600Z,1005.0
2018-07-10T09:11:34.997Z,1005.0
2018-07-10T09:12:36.467Z,1005.0
2018-07-10T09:13:37.915Z,1005.0
2018-07-10T09:14:39.313Z,1005.0
2018-07-10T09:15:40.718Z,1004.9
2018-07-10T09:16:42.125Z,1005.0
2018-07-10T09:17:43.524Z,1004.9
2018-07-10T09:18:44.924Z,1004.9
2018-07-10T09:19:46.331Z,1004.9
2018-07-10T09:20:47.718Z,1004.8
2018-07-10T09:21:49.115Z,1004.8
2018-07-10T09:22:50.519Z,1004.9
2018-07-10T09:23:51.916Z,1004.9
2018-07-10T09:24:53.309Z,1005.0
2018-07-10T09:25:54.713Z,1004.9
2018-07-10T09:26:56.111Z,1004.9
2018-07-10T09:27:57.509Z,1005.0
2018-07-10T09:28:58.940Z,1004.9
2018-07-10T09:30:00.316Z,1005.0
2018-07-10T09:31:01.735Z,1004.9
2018-07-10T09:32:03.126Z,1004.9
2018-07-10T09:33:04.528Z,1005.0
2018-07-10T09:34:05.928Z,1005.0
2018-07-10T09:35:07.330Z,1005.0
2018-07-10T09:36:08.719Z,1005.0
2018-07-10T09:37:10.117Z,1005.0
2018-07-10T09:38:11.585Z,1005.0
2018-07-10T09:39:12.917Z,1004.9
2018-07-10T09:40:14.317Z,1005.0
2018-07-10T09:41:15.718Z,1005.0
2018-07-10T09:42:17.111Z,1004.9
2018-07-10T09:43:18.510Z,1004.9
2018-07-10T09:44:19.925Z,1004.9
2018-07-10T09:45:21.320Z,1004.9
2018-07-10T09:46:22.717Z,1004.9
2018-07-10T09:47:24.118Z,1005.0
2018-07-10T09:48:25.518Z,1005.0
2018-07-10T09:49:26.917Z,1004.9
2018-07-10T09:50:28.328Z,1005.0
2018-07-10T09:51:29.728Z,1005.0
2018-07-10T09:52:31.124Z,1005.0
2018-07-10T09:53:32.522Z,1005.0
2018-07-10T09:54:33.981Z,1005.0
2018-07-10T09:55:35.340Z,1004.9
2018-07-10T09:56:36.750Z,1005.0
2018-07-10T09:57:38.150Z,1005.0
2018-07-10T09:58:39.546Z,1005.0
2018-07-10T09:59:40.944Z,1005.0
2018-07-10T10:00:42.345Z,1005.0
2018-07-10T10:01:43.750Z,1005.0
2018-07-10T10:02:45.154Z,1005.0
2018-07-10T10:03:46.555Z,1005.0
2018-07-10T10:04:47.952Z,1005.0
2018-07-10T10:05:49.350Z,1005.0
2018-07-10T10:06:50.750Z,1005.0
2018-07-10T10:07:52.150Z,1005.0
2018-07-10T10:08:53.550Z,1005.0
2018-07-10T10:09:54.951Z,1005.0
2018-07-10T10:10:56.350Z,1005.0
2018-07-10T10:11:57.747Z,1005.0
2018-07-10T10:12:59.146Z,1005.0
2018-07-10T10:14:00.543Z,1005.0
2018-07-10T10:15:01.945Z,1005.0
2018-07-10T10:16:03.346Z,1005.0
2018-07-10T10:17:04.743Z,1005.0
2018-07-10T10:18:06.144Z,1005.0
2018-07-10T10:19:07.544Z,1005.0
2018-07-10T10:20:08.953Z,1005.0
2018-07-10T10:21:10.351Z,1005.0
2018-07-10T10:22:11.745Z,1005.1
2018-07-10T10:23:13.194Z,1005.0
2018-07-10T10:24:14.599Z,1005.1
2018-07-10T10:25:16.000Z,1005.0
2018-07-10T10:26:17.394Z,1005.1
2018-07-10T10:27:18.791Z,1005.1
2018-07-10T10:28:20.197Z,1005.1
2018-07-10T10:29:21.596Z,1005.0
2018-07-10T10:30:23.000Z,1005.0
2018-07-10T10:31:24.398Z,1005.1
2018-07-10T10:32:25.794Z,1005.0
2018-07-10T10:33:27.196Z,1005.0
2018-07-10T10:34:28.589Z,1005.0
2018-07-10T10:35:29.990Z,1004.9
2018-07-10T10:36:31.393Z,1005.0
2018-07-10T10:37:32.793Z,1004.9
2018-07-10T10:38:34.214Z,1004.9
2018-07-10T10:39:35.642Z,1004.9
2018-07-10T10:40:37.041Z,1004.9
2018-07-10T10:41:38.438Z,1004.9
2018-07-10T10:42:39.835Z,1004.8
2018-07-10T10:43:41.240Z,1004.8
2018-07-10T10:44:42.641Z,1004.7
2018-07-10T10:45:44.041Z,1004.8
2018-07-10T10:46:45.439Z,1004.7
2018-07-10T10:47:46.835Z,1004.8
2018-07-10T10:48:48.232Z,1004.8
2018-07-10T10:49:49.633Z,1004.9
2018-07-10T10:50:51.034Z,1004.8
2018-07-10T10:51:52.436Z,1004.7
2018-07-10T10:52:53.835Z,1004.7
2018-07-10T10:53:55.231Z,1004.8
2018-07-10T10:54:56.664Z,1004.7
2018-07-10T10:55:58.031Z,1004.7
2018-07-10T10:56:59.426Z,1004.7
2018-07-10T10:58:00.825Z,1004.7
2018-07-10T10:59:02.227Z,1004.7
2018-07-10T11:00:03.629Z,1004.7
2018-07-10T11:01:05.024Z,1004.7
2018-07-10T11:02:06.426Z,1004.7
2018-07-10T11:03:07.820Z,1004.7
2018-07-10T11:04:09.222Z,1004.7
2018-07-10T11:05:10.618Z,1004.7
2018-07-10T11:06:12.013Z,1004.8
2018-07-10T11:07:13.412Z,1004.7
2018-07-10T11:08:14.810Z,1004.8
2018-07-10T11:09:16.210Z,1004.7
2018-07-10T11:10:17.628Z,1004.7
2018-07-10T11:11:19.010Z,1004.7
2018-07-10T11:12:20.415Z,1004.8
2018-07-10T11:13:21.812Z,1004.8
2018-07-10T11:14:23.215Z,1004.7
2018-07-10T11:15:24.650Z,1004.7
2018-07-10T11:16:26.010Z,1004.8
2018-07-10T11:17:27.409Z,1004.7
2018-07-10T11:18:28.806Z,1004.8
2018-07-10T11:19:30.211Z,1004.7
2018-07-10T11:20:31.610Z,1004.7
2018-07-10T11:21:33.051Z,1004.7
2018-07-10T11:22:34.478Z,1004.7
2018-07-10T11:23:35.896Z,1004.7
2018-07-10T11:24:37.297Z,1004.7
2018-07-10T11:25:38.695Z,1004.7
2018-07-10T11:26:40.100Z,1004.7
2018-07-10T11:27:41.489Z,1004.8
2018-07-10T11:28:42.894Z,1004.7
2018-07-10T11:29:44.286Z,1004.7
2018-07-10T11:30:45.685Z,1004.7
2018-07-10T11:31:47.085Z,1004.7
2018-07-10T11:32:48.486Z,1004.7
2018-07-10T11:33:49.886Z,1004.7
2018-07-10T11:34:51.287Z,1004.6
2018-07-10T11:35:52.686Z,1004.6
2018-07-10T11:36:54.084Z,1004.6
2018-07-10T11:37:55.480Z,1004.6
2018-07-10T11:38:56.878Z,1004.6
2018-07-10T11:39:58.275Z,1004.6
2018-07-10T11:40:59.674Z,1004.6
2018-07-10T11:42:01.079Z,1004.6
2018-07-10T11:43:02.481Z,1004.7
2018-07-10T11:44:03.883Z,1004.5
2018-07-10T11:45:05.272Z,1004.5
2018-07-10T11:46:06.673Z,1004.5
2018-07-10T11:47:08.068Z,1004.5
2018-07-10T11:48:09.487Z,1004.5
2018-07-10T11:49:10.895Z,1004.4
2018-07-10T11:50:12.294Z,1004.5
2018-07-10T11:51:13.688Z,1004.5
2018-07-10T11:52:15.091Z,1004.5
2018-07-10T11:53:16.486Z,1004.5
2018-07-10T11:54:17.882Z,1004.5
2018-07-10T11:55:19.281Z,1004.5
2018-07-10T11:56:20.684Z,1004.5
2018-07-10T11:57:22.092Z,1004.6
2018-07-10T11:58:23.494Z,1004.6
2018-07-10T11:59:24.900Z,1004.5
2018-07-10T12:00:26.294Z,1004.6
2018-07-10T12:01:27.694Z,1004.7
2018-07-10T12:02:29.096Z,1004.6
2018-07-10T12:03:30.496Z,1004.6
2018-07-10T12:04:31.968Z,1004.5
2018-07-10T12:05:33.422Z,1004.5
2018-07-10T12:06:34.824Z,1004.5
2018-07-10T12:07:36.224Z,1004.5
2018-07-10T12:08:37.631Z,1004.5
2018-07-10T12:09:39.031Z,1004.3
2018-07-10T12:10:40.427Z,1004.4
2018-07-10T12:11:41.825Z,1004.4
2018-07-10T12:12:43.260Z,1004.4
2018-07-10T12:13:44.648Z,1004.4
2018-07-10T12:14:46.043Z,1004.4
2018-07-10T12:15:47.446Z,1004.4
2018-07-10T12:16:48.844Z,1004.4
2018-07-10T12:17:50.252Z,1004.3
2018-07-10T12:18:51.658Z,1004.4
2018-07-10T12:19:53.057Z,1004.3
2018-07-10T12:20:54.500Z,1004.4
2018-07-10T12:21:55.849Z,1004.3
2018-07-10T12:22:57.251Z,1004.3
2018-07-10T12:23:58.684Z,1004.3
2018-07-10T12:25:00.097Z,1004.3
2018-07-10T12:26:01.479Z,1004.3
2018-07-10T12:27:02.878Z,1004.4
2018-07-10T12:28:04.305Z,1004.3
2018-07-10T12:29:05.680Z,1004.4
2018-07-10T12:30:07.079Z,1004.4
2018-07-10T12:31:08.478Z,1004.4
2018-07-10T12:32:09.882Z,1004.4
2018-07-10T12:33:11.281Z,1004.4
2018-07-10T12:34:12.676Z,1004.4
2018-07-10T12:35:14.102Z,1004.4
2018-07-10T12:36:15.476Z,1004.5
2018-07-10T12:37:16.882Z,1004.4
2018-07-10T12:38:18.287Z,1004.5
2018-07-10T12:39:19.686Z,1004.5
2018-07-10T12:40:21.086Z,1004.5
2018-07-10T12:41:22.491Z,1004.5
2018-07-10T12:42:23.890Z,1004.4
2018-07-10T12:43:25.287Z,1004.4
2018-07-10T12:44:26.691Z,1004.5
2018-07-10T12:45:28.090Z,1004.4
2018-07-10T12:46:29.490Z,1004.5